Time;durP1;ratioP1;P1;durP2;ratioP2;P2;SDS_P1;SDS_P2;PMS_P1;PMS_P2;Temp;Humidity;BMP_temperature;BMP_pressure;BME280_temperature;BME280_humidity;BME280_pressure;Samples;Min_cycle;Max_cycle;Signal;HPM_P1;HPM_P2
2023/01/30 00:01:42;;;;;;;83.47;34.47;;;3.20;99.90;;;;;;5074915;28;20025;-63
2023/01/30 00:04:11;;;;;;;78.15;33.58;;;3.20;99.90;;;;;;5076252;28;20501;-62
2023/01/30 00:06:37;;;;;;;78.80;34.22;;;3.30;99.90;;;;;;5075966;28;20031;-62
2023/01/30 00:09:03;;;;;;;80.13;33.08;;;3.30;99.90;;;;;;5075891;28;20107;-62
2023/01/30 00:11:30;;;;;;;80.22;35.63;;;3.30;99.90;;;;;;5057823;28;20120;-62
2023/01/30 00:13:56;;;;;;;79.55;35.15;;;3.30;99.90;;;;;;5076075;28;20020;-62
2023/01/30 00:16:22;;;;;;;76.65;34.05;;;3.40;99.90;;;;;;5076001;28;20031;-62
2023/01/30 00:18:47;;;;;;;73.40;32.03;;;3.40;99.90;;;;;;5074809;28;20035;-62
2023/01/30 00:21:14;;;;;;;83.78;34.97;;;3.40;99.90;;;;;;5075699;28;20043;-63
2023/01/30 00:23:40;;;;;;;80.88;34.05;;;3.40;99.90;;;;;;5075208;28;20394;-62
2023/01/30 00:26:06;;;;;;;80.93;34.10;;;3.50;99.90;;;;;;5075777;28;20024;-62
2023/01/30 00:28:32;;;;;;;83.72;33.78;;;3.50;99.90;;;;;;5075398;28;20078;-63
2023/01/30 00:30:58;;;;;;;79.05;33.47;;;3.50;99.90;;;;;;5075701;28;20044;-62
2023/01/30 00:33:26;;;;;;;81.30;33.20;;;3.50;99.90;;;;;;5075497;28;20112;-62
2023/01/30 00:35:53;;;;;;;80.45;34.00;;;3.50;99.90;;;;;;5075423;28;20501;-63
2023/01/30 00:38:20;;;;;;;73.78;33.35;;;3.60;99.90;;;;;;5075390;28;20017;-63
2023/01/30 00:40:47;;;;;;;77.35;32.88;;;3.50;99.90;;;;;;5075427;28;20048;-63
2023/01/30 00:48:49;;;;;;;77.78;33.08;;;3.60;99.90;;;;;;5074978;28;20498;-62
2023/01/30 00:51:14;;;;;;;81.43;34.47;;;3.70;99.90;;;;;;5075067;28;20056;-63
2023/01/30 00:53:40;;;;;;;86.93;36.15;;;3.70;99.90;;;;;;5075120;28;20104;-62
2023/01/30 00:56:06;;;;;;;82.50;34.97;;;3.80;99.90;;;;;;5075116;28;20122;-62
2023/01/30 00:58:32;;;;;;;80.05;34.08;;;3.80;99.90;;;;;;5073852;28;20378;-62
2023/01/30 01:00:58;;;;;;;82.57;35.67;;;3.80;99.90;;;;;;5074921;28;20389;-62
2023/01/30 01:03:23;;;;;;;81.38;34.38;;;3.90;99.90;;;;;;5075139;28;20069;-62
2023/01/30 01:05:49;;;;;;;83.43;35.22;;;3.90;99.90;;;;;;5074745;28;20029;-63
2023/01/30 01:08:14;;;;;;;85.40;34.55;;;3.90;99.90;;;;;;5074864;28;20024;-62
2023/01/30 01:10:40;;;;;;;80.18;35.45;;;4.00;99.90;;;;;;5074990;28;20024;-63
2023/01/30 01:13:06;;;;;;;76.38;34.75;;;4.00;99.90;;;;;;5074747;28;20406;-62
2023/01/30 01:15:32;;;;;;;85.22;36.47;;;4.10;99.90;;;;;;5074609;28;20096;-62
2023/01/30 01:17:58;;;;;;;81.97;36.97;;;4.00;99.90;;;;;;5074549;28;20067;-62
2023/01/30 01:20:24;;;;;;;84.15;35.00;;;4.10;99.90;;;;;;5074534;28;20426;-63
2023/01/30 01:22:54;;;;;;;85.07;35.83;;;4.10;99.90;;;;;;5074709;28;20036;-63
2023/01/30 01:25:21;;;;;;;82.22;35.53;;;4.20;99.90;;;;;;5074408;28;20436;-63
2023/01/30 01:27:47;;;;;;;88.00;36.70;;;4.20;99.90;;;;;;5074635;28;20438;-62
2023/01/30 01:30:13;;;;;;;77.57;35.63;;;4.20;99.90;;;;;;5073081;28;20056;-63
2023/01/30 01:32:38;;;;;;;79.35;35.53;;;4.20;99.90;;;;;;5074281;28;20071;-62
2023/01/30 01:35:05;;;;;;;84.30;36.00;;;4.20;99.90;;;;;;5073767;28;20021;-62
2023/01/30 01:37:30;;;;;;;84.82;37.30;;;4.20;99.90;;;;;;5073825;28;20024;-62
2023/01/30 01:42:42;;;;;;;86.10;36.47;;;4.20;99.90;;;;;;5073929;28;20031;-63
2023/01/30 01:48:08;;;;;;;87.43;37.05;;;4.20;99.90;;;;;;5090779;27;20386;-63
2023/01/30 01:50:54;;;;;;;81.07;35.58;;;4.20;99.90;;;;;;5090735;28;20133;-62
2023/01/30 01:53:25;;;;;;;79.25;34.75;;;4.20;99.90;;;;;;5090701;28;20034;-62
2023/01/30 01:55:53;;;;;;;85.05;34.67;;;4.20;99.90;;;;;;5089412;28;20112;-62
2023/01/30 01:58:26;;;;;;;84.60;36.40;;;4.20;99.90;;;;;;5090814;28;20052;-62
2023/01/30 02:00:53;;;;;;;;;;;4.20;99.90;;;;;;5090993;28;20035;-62
2023/01/30 02:03:24;;;;;;;90.30;38.45;;;4.20;99.90;;;;;;5090438;28;19905;-62
2023/01/30 02:05:52;;;;;;;83.38;35.78;;;;;;;;;;5090556;28;20020;-63
2023/01/30 02:08:32;;;;;;;80.20;35.30;;;4.20;99.90;;;;;;5090364;28;20020;-62
2023/01/30 02:11:18;;;;;;;86.25;36.50;;;4.20;99.90;;;;;;5090483;28;20107;-62
2023/01/30 02:13:45;;;;;;;89.78;36.20;;;4.20;99.90;;;;;;5090352;28;20016;-63
2023/01/30 02:16:11;;;;;;;93.90;38.22;;;4.20;99.90;;;;;;5090280;28;20073;-62
2023/01/30 02:18:39;;;;;;;85.45;37.35;;;4.20;99.90;;;;;;5090453;28;20036;-62
2023/01/30 02:21:39;;;;;;;87.28;37.90;;;4.20;99.90;;;;;;5090111;28;20035;-62
2023/01/30 02:24:44;;;;;;;82.43;37.17;;;4.20;99.90;;;;;;5090081;28;20120;-62
2023/01/30 02:27:43;;;;;;;88.15;38.90;;;4.30;99.90;;;;;;5089784;28;20025;-62
2023/01/30 02:30:49;;;;;;;88.00;37.58;;;4.30;99.90;;;;;;5089863;28;20051;-62
2023/01/30 02:33:43;;;;;;;94.47;39.67;;;4.30;99.90;;;;;;5089763;28;20414;-62
2023/01/30 02:36:29;;;;;;;91.45;39.25;;;4.30;99.90;;;;;;5089887;28;20024;-63
2023/01/30 02:39:27;;;;;;;91.50;39.55;;;4.30;99.90;;;;;;5089788;28;20016;-62
2023/01/30 02:42:18;;;;;;;95.90;41.28;;;4.30;99.90;;;;;;5089522;28;20107;-62
2023/01/30 02:45:09;;;;;;;94.50;40.22;;;4.40;99.90;;;;;;5089642;28;20066;-62
2023/01/30 02:47:46;;;;;;;99.50;41.83;;;4.40;99.90;;;;;;5089364;28;20387;-62
2023/01/30 02:50:17;;;;;;;94.63;41.85;;;4.40;99.90;;;;;;5088545;28;20028;-62
2023/01/30 02:52:44;;;;;;;97.55;41.88;;;4.40;99.90;;;;;;5089518;28;20052;-62
2023/01/30 02:55:19;;;;;;;96.75;43.70;;;4.40;99.90;;;;;;5088358;28;20035;-62
2023/01/30 02:57:44;;;;;;;102.20;42.75;;;4.40;99.90;;;;;;5083661;28;20028;-62
2023/01/30 03:00:11;;;;;;;102.07;43.95;;;4.40;99.90;;;;;;5075919;28;20146;-62
2023/01/30 03:03:07;;;;;;;100.47;43.28;;;4.40;99.90;;;;;;5074677;28;20201;-62
2023/01/30 03:06:12;;;;;;;109.50;47.85;;;4.50;99.90;;;;;;5075576;28;20016;-62
2023/01/30 03:08:49;;;;;;;101.60;44.67;;;4.50;99.90;;;;;;5075578;28;20423;-62
2023/01/30 03:11:16;;;;;;;108.82;44.42;;;4.50;99.90;;;;;;5075772;28;20020;-62
2023/01/30 03:14:07;;;;;;;110.65;47.97;;;4.50;99.90;;;;;;5075968;28;20359;-62
2023/01/30 03:16:37;;;;;;;113.85;47.60;;;4.60;99.90;;;;;;5075484;28;20028;-62
2023/01/30 03:19:05;;;;;;;110.60;44.70;;;4.60;99.90;;;;;;5075827;28;20482;-62
2023/01/30 03:21:32;;;;;;;107.85;47.47;;;4.60;99.90;;;;;;5075457;28;20028;-62
2023/01/30 03:23:57;;;;;;;109.50;47.55;;;4.60;99.90;;;;;;5075747;28;20028;-62
2023/01/30 03:26:28;;;;;;;119.97;49.40;;;4.60;99.90;;;;;;5075608;28;20378;-62
2023/01/30 03:28:54;;;;;;;105.10;47.63;;;4.60;99.90;;;;;;5074263;28;20016;-62
2023/01/30 03:31:20;;;;;;;113.30;47.47;;;4.70;99.90;;;;;;5075517;28;20032;-62
2023/01/30 03:33:46;;;;;;;102.60;46.63;;;4.70;99.90;;;;;;5075428;28;20486;-62
2023/01/30 03:36:12;;;;;;;116.80;49.55;;;4.70;99.90;;;;;;5075536;28;20027;-62
2023/01/30 03:38:38;;;;;;;108.22;47.13;;;4.70;99.90;;;;;;5075335;28;20516;-62
2023/01/30 03:41:04;;;;;;;111.05;47.40;;;4.70;99.90;;;;;;5073979;28;20048;-62
2023/01/30 03:43:30;;;;;;;110.78;47.70;;;4.80;99.90;;;;;;5075151;28;20029;-62
2023/01/30 03:45:56;;;;;;;118.22;49.63;;;4.80;99.90;;;;;;5074945;28;20506;-62
2023/01/30 03:48:21;;;;;;;116.22;51.25;;;4.80;99.90;;;;;;5075274;28;20109;-62
2023/01/30 03:50:47;;;;;;;118.28;49.00;;;;;;;;;;5075233;28;20046;-63
2023/01/30 03:53:13;;;;;;;111.07;49.28;;;4.80;99.90;;;;;;5074946;28;20079;-63
2023/01/30 03:55:39;;;;;;;108.25;47.75;;;4.80;99.90;;;;;;5074950;28;20421;-62
2023/01/30 03:58:05;;;;;;;112.90;50.38;;;4.80;99.90;;;;;;5075097;28;20092;-62
2023/01/30 04:00:31;;;;;;;108.05;49.70;;;4.90;99.90;;;;;;5075010;28;20024;-63
2023/01/30 04:02:57;;;;;;;111.70;50.95;;;4.90;99.90;;;;;;5074663;28;20016;-62
2023/01/30 04:05:23;;;;;;;109.45;51.95;;;4.90;99.90;;;;;;5074802;28;20028;-62
2023/01/30 04:07:49;;;;;;;118.70;51.65;;;4.90;99.90;;;;;;5074615;28;20020;-62
2023/01/30 04:10:17;;;;;;;121.00;54.85;;;4.90;99.90;;;;;;5072718;28;20020;-63
2023/01/30 04:12:43;;;;;;;118.78;52.30;;;5.00;99.90;;;;;;5074519;28;20027;-62
2023/01/30 04:15:09;;;;;;;119.40;52.97;;;5.00;99.90;;;;;;5074470;28;20024;-62
2023/01/30 04:17:34;;;;;;;108.22;50.80;;;5.00;99.90;;;;;;5074585;28;20040;-62
2023/01/30 04:20:00;;;;;;;114.82;51.03;;;5.00;99.90;;;;;;5074384;28;20024;-63
2023/01/30 04:22:25;;;;;;;108.65;47.28;;;5.00;99.90;;;;;;5074305;28;20386;-63
2023/01/30 04:24:51;;;;;;;115.50;53.47;;;5.00;99.90;;;;;;5074294;28;20078;-63
2023/01/30 04:27:16;;;;;;;115.78;48.50;;;5.00;99.90;;;;;;5074215;28;20028;-62
2023/01/30 04:29:42;;;;;;;110.20;50.42;;;5.10;99.90;;;;;;5074160;28;20029;-62
2023/01/30 04:32:08;;;;;;;109.20;48.50;;;5.10;99.90;;;;;;5074373;28;20042;-62
2023/01/30 04:34:33;;;;;;;112.75;50.33;;;5.10;99.90;;;;;;5074110;28;20028;-63
2023/01/30 04:36:59;;;;;;;110.85;49.05;;;5.10;99.90;;;;;;5074269;28;20020;-62
2023/01/30 04:39:24;;;;;;;107.50;50.50;;;5.10;99.90;;;;;;5074330;28;20032;-63
2023/01/30 04:41:50;;;;;;;111.38;49.58;;;5.10;99.90;;;;;;5074149;28;20489;-63
2023/01/30 04:44:15;;;;;;;105.07;47.47;;;5.10;99.90;;;;;;5073917;28;20031;-63
2023/01/30 04:46:41;;;;;;;109.22;50.33;;;5.10;99.90;;;;;;5072443;28;20048;-62
2023/01/30 04:49:09;;;;;;;109.18;50.08;;;5.10;99.90;;;;;;5072602;28;20031;-62
2023/01/30 04:51:34;;;;;;;110.28;50.55;;;5.10;99.90;;;;;;5074021;28;20028;-62
2023/01/30 04:54:00;;;;;;;103.43;49.20;;;5.20;99.90;;;;;;5073721;28;20096;-63
2023/01/30 04:56:26;;;;;;;106.47;49.33;;;5.10;99.90;;;;;;5073924;28;20024;-63
2023/01/30 04:58:51;;;;;;;111.22;50.50;;;5.20;99.90;;;;;;5073864;28;20085;-63
2023/01/30 05:01:31;;;;;;;104.75;49.47;;;5.20;99.90;;;;;;5073865;28;20500;-63
2023/01/30 05:03:58;;;;;;;100.85;49.10;;;5.20;99.90;;;;;;5073814;28;20543;-62
2023/01/30 05:06:23;;;;;;;108.72;49.38;;;5.20;99.90;;;;;;5073485;28;20474;-63
2023/01/30 05:08:51;;;;;;;110.82;49.75;;;5.20;99.90;;;;;;5073732;28;20032;-62
2023/01/30 05:11:17;;;;;;;108.45;49.75;;;5.20;99.90;;;;;;5073874;28;20429;-62
2023/01/30 05:13:43;;;;;;;103.85;49.22;;;5.20;99.90;;;;;;5073694;28;20023;-62
2023/01/30 05:16:10;;;;;;;110.25;51.80;;;5.20;99.90;;;;;;5073625;28;20545;-62
2023/01/30 05:18:36;;;;;;;106.43;48.35;;;5.30;99.90;;;;;;5073351;28;20107;-62
2023/01/30 05:21:06;;;;;;;110.80;50.10;;;5.30;99.90;;;;;;5073119;28;20079;-62
2023/01/30 05:23:31;;;;;;;107.97;48.38;;;5.30;99.90;;;;;;5073551;28;20048;-62
2023/01/30 05:25:57;;;;;;;105.30;49.60;;;5.30;99.90;;;;;;5073431;28;20032;-62
2023/01/30 05:28:23;;;;;;;101.97;46.03;;;5.30;99.90;;;;;;5073307;28;20363;-63
2023/01/30 05:30:48;;;;;;;104.20;49.35;;;5.30;99.90;;;;;;5073442;28;20032;-63
2023/01/30 05:33:14;;;;;;;103.25;48.45;;;5.30;99.90;;;;;;5073480;28;20485;-63
2023/01/30 05:35:46;;;;;;;105.10;50.35;;;5.40;99.90;;;;;;5073225;28;20047;-63
2023/01/30 05:38:11;;;;;;;97.83;46.97;;;5.40;99.90;;;;;;5073441;28;20466;-63
2023/01/30 05:40:37;;;;;;;102.45;48.13;;;5.40;99.90;;;;;;5073384;28;20111;-63
2023/01/30 05:43:02;;;;;;;95.20;45.60;;;5.40;99.90;;;;;;5073372;28;20053;-63
2023/01/30 05:45:28;;;;;;;94.80;46.15;;;5.40;99.90;;;;;;5071864;28;20493;-63
2023/01/30 05:47:53;;;;;;;94.63;45.42;;;5.40;99.90;;;;;;5073053;28;20624;-63
2023/01/30 05:50:19;;;;;;;92.72;45.30;;;5.50;99.90;;;;;;5072989;28;20436;-63
2023/01/30 05:52:45;;;;;;;89.72;46.38;;;5.50;99.90;;;;;;5073025;28;20505;-63
2023/01/30 05:55:10;;;;;;;94.47;47.10;;;5.50;99.90;;;;;;5073102;28;20035;-63
2023/01/30 05:57:36;;;;;;;96.45;47.33;;;5.50;99.90;;;;;;5072967;28;20025;-63
2023/01/30 06:00:02;;;;;;;98.55;47.45;;;5.60;99.90;;;;;;5072918;28;20024;-63
2023/01/30 06:02:30;;;;;;;85.13;43.47;;;5.60;99.90;;;;;;5073149;28;20046;-63
2023/01/30 06:04:55;;;;;;;83.53;41.92;;;5.60;99.90;;;;;;5073098;28;20111;-63
2023/01/30 06:07:21;;;;;;;80.70;41.17;;;5.70;99.90;;;;;;5072995;28;20108;-63
2023/01/30 06:09:46;;;;;;;78.13;41.53;;;5.60;99.90;;;;;;5072826;28;20090;-63
2023/01/30 06:12:12;;;;;;;82.75;41.45;;;5.70;99.90;;;;;;5073053;28;20021;-63
2023/01/30 06:14:38;;;;;;;77.97;39.55;;;5.70;99.90;;;;;;5073056;28;20112;-63
2023/01/30 06:17:03;;;;;;;75.75;38.33;;;5.70;99.90;;;;;;5072748;28;20081;-63
2023/01/30 06:19:29;;;;;;;69.72;36.95;;;5.80;99.90;;;;;;5072939;28;20116;-63
2023/01/30 06:21:54;;;;;;;71.28;37.63;;;5.80;99.90;;;;;;5072970;28;20047;-63
2023/01/30 06:24:20;;;;;;;69.47;37.15;;;5.80;99.90;;;;;;5072692;28;20077;-63
2023/01/30 06:26:46;;;;;;;70.93;38.10;;;5.90;99.90;;;;;;5072854;28;20477;-63
2023/01/30 06:29:11;;;;;;;72.15;37.67;;;5.80;99.90;;;;;;5072782;28;20394;-63
2023/01/30 06:31:37;;;;;;;74.60;35.63;;;5.90;99.90;;;;;;5072618;28;20032;-63
2023/01/30 06:34:02;;;;;;;69.65;36.30;;;5.90;99.90;;;;;;5075706;28;20032;-63
2023/01/30 06:36:28;;;;;;;63.28;32.90;;;5.90;99.90;;;;;;5076564;28;20527;-63
2023/01/30 06:38:53;;;;;;;61.97;32.67;;;5.90;99.90;;;;;;5076235;28;20036;-63
2023/01/30 06:41:19;;;;;;;64.15;34.15;;;5.90;99.90;;;;;;5076443;28;20070;-63
2023/01/30 06:43:44;;;;;;;65.85;35.25;;;5.90;99.90;;;;;;5076220;28;20427;-63
2023/01/30 06:46:10;;;;;;;64.88;36.65;;;5.90;99.90;;;;;;5075884;28;20053;-63
2023/01/30 06:48:35;;;;;;;63.67;33.90;;;6.00;99.90;;;;;;5076000;28;20133;-63
2023/01/30 06:51:01;;;;;;;53.13;31.95;;;6.00;99.90;;;;;;5076025;28;20032;-63
2023/01/30 06:53:29;;;;;;;55.17;29.83;;;6.00;99.90;;;;;;5076217;28;20028;-63
2023/01/30 06:55:57;;;;;;;54.10;29.33;;;6.00;99.90;;;;;;5075974;28;20032;-63
2023/01/30 06:58:23;;;;;;;57.35;30.42;;;6.10;99.90;;;;;;5076060;28;20031;-63
2023/01/30 07:00:48;;;;;;;57.17;30.83;;;6.10;99.90;;;;;;5075942;28;20103;-62
2023/01/30 07:03:15;;;;;;;55.92;28.73;;;6.20;99.90;;;;;;5074797;28;20033;-62
2023/01/30 07:05:43;;;;;;;50.03;29.45;;;6.30;99.90;;;;;;5075999;28;20028;-63
2023/01/30 07:08:09;;;;;;;63.15;30.38;;;6.30;99.90;;;;;;5075747;28;20024;-63
2023/01/30 07:10:34;;;;;;;57.78;32.83;;;6.30;99.90;;;;;;5075483;28;20032;-63
2023/01/30 07:13:00;;;;;;;61.70;32.42;;;6.30;99.90;;;;;;5074731;28;20138;-63
2023/01/30 07:15:27;;;;;;;51.13;27.27;;;6.30;99.90;;;;;;5075814;28;20024;-63
2023/01/30 07:17:53;;;;;;;54.35;27.33;;;6.40;99.90;;;;;;5075826;28;20110;-63
2023/01/30 07:20:18;;;;;;;49.45;27.15;;;6.50;99.90;;;;;;5075794;28;20064;-63
2023/01/30 07:22:52;;;;;;;51.17;25.95;;;6.40;99.90;;;;;;5075572;28;20062;-63
2023/01/30 07:25:20;;;;;;;49.33;24.80;;;6.50;99.90;;;;;;5075728;28;20418;-63
2023/01/30 07:27:53;;;;;;;51.65;25.92;;;6.40;99.90;;;;;;5075421;28;20029;-64
2023/01/30 07:30:19;;;;;;;50.08;26.15;;;6.40;99.90;;;;;;5075436;28;20470;-63
2023/01/30 07:32:50;;;;;;;51.85;25.70;;;6.40;99.90;;;;;;5073229;28;20040;-63
2023/01/30 07:35:16;;;;;;;47.30;24.90;;;6.40;99.90;;;;;;5069441;28;20044;-65
2023/01/30 07:37:45;;;;;;;42.70;21.20;;;6.40;99.90;;;;;;5055587;28;20025;-63
2023/01/30 07:40:11;;;;;;;34.90;16.08;;;6.30;99.90;;;;;;5068134;28;20061;-65
2023/01/30 07:42:36;;;;;;;26.25;11.48;;;6.20;99.90;;;;;;5074020;28;20056;-64
2023/01/30 07:45:02;;;;;;;13.25;7.45;;;6.10;99.90;;;;;;5072298;28;20040;-63
2023/01/30 07:47:28;;;;;;;17.73;6.65;;;6.10;99.90;;;;;;5069121;28;20048;-63
2023/01/30 07:49:53;;;;;;;20.65;6.40;;;6.00;99.90;;;;;;5057390;28;20062;-65
2023/01/30 07:52:19;;;;;;;18.42;6.35;;;6.10;99.90;;;;;;5054530;28;20028;-63
2023/01/30 07:54:44;;;;;;;16.20;5.80;;;6.10;99.90;;;;;;5056468;28;20513;-60
2023/01/30 07:57:10;;;;;;;17.92;5.97;;;6.10;99.90;;;;;;5064261;28;20060;-60
2023/01/30 07:59:35;;;;;;;16.25;5.70;;;6.10;99.90;;;;;;5072731;28;20543;-60
2023/01/30 08:02:01;;;;;;;18.75;6.03;;;6.10;99.90;;;;;;5073144;28;20039;-61
2023/01/30 08:04:26;;;;;;;22.77;6.18;;;6.10;99.90;;;;;;5074381;28;20031;-62
2023/01/30 08:06:52;;;;;;;23.33;6.60;;;6.10;99.90;;;;;;5057349;28;20037;-61
2023/01/30 08:09:17;;;;;;;25.35;6.53;;;6.10;99.90;;;;;;5074203;28;20021;-62
2023/01/30 08:11:43;;;;;;;19.83;6.10;;;6.00;99.90;;;;;;5062653;28;20055;-64
2023/01/30 08:14:09;;;;;;;21.92;6.55;;;6.00;99.90;;;;;;5072612;28;20390;-64
2023/01/30 08:16:35;;;;;;;21.50;6.78;;;6.00;99.90;;;;;;5068824;28;20032;-64
2023/01/30 08:19:04;;;;;;;26.65;7.00;;;6.00;99.90;;;;;;5072636;28;20020;-68
2023/01/30 08:21:29;;;;;;;21.25;6.25;;;5.90;99.90;;;;;;5070909;28;20153;-64
2023/01/30 08:23:55;;;;;;;18.05;5.03;;;5.90;99.90;;;;;;5063485;28;20136;-65
2023/01/30 08:26:20;;;;;;;24.20;5.75;;;5.90;99.90;;;;;;5066442;28;20115;-65
2023/01/30 08:28:46;;;;;;;17.83;5.45;;;5.90;99.90;;;;;;5064297;28;20024;-64
2023/01/30 08:31:13;;;;;;;23.88;4.63;;;6.00;99.90;;;;;;5063863;28;20040;-64
2023/01/30 08:33:39;;;;;;;24.50;4.85;;;6.10;99.90;;;;;;5057599;28;20100;-64
2023/01/30 08:36:05;;;;;;;19.88;4.95;;;6.20;99.90;;;;;;5062442;28;20179;-65
2023/01/30 08:38:30;;;;;;;19.70;3.78;;;6.30;99.90;;;;;;5073276;28;20497;-66
2023/01/30 08:40:56;;;;;;;25.48;4.85;;;6.30;99.90;;;;;;5072532;28;20028;-64
2023/01/30 08:43:23;;;;;;;21.42;3.90;;;6.30;99.90;;;;;;5065027;28;20155;-64
2023/01/30 08:45:51;;;;;;;17.05;3.67;;;6.30;99.90;;;;;;5063042;28;20041;-65
2023/01/30 08:48:17;;;;;;;22.48;4.68;;;6.30;99.90;;;;;;5059701;28;20035;-64
2023/01/30 08:50:42;;;;;;;26.25;4.65;;;6.30;99.90;;;;;;5071679;28;20033;-64
2023/01/30 08:53:09;;;;;;;20.13;3.92;;;6.40;99.90;;;;;;5070761;28;20021;-68
2023/01/30 08:55:34;;;;;;;20.95;4.47;;;6.50;99.90;;;;;;5071791;28;20414;-65
2023/01/30 08:58:00;;;;;;;28.27;4.25;;;6.40;99.90;;;;;;5064829;28;20033;-64
2023/01/30 09:00:27;;;;;;;23.13;4.18;;;6.50;99.90;;;;;;5070146;28;20028;-64
2023/01/30 09:02:56;;;;;;;20.38;3.50;;;6.60;99.90;;;;;;5061414;28;20413;-64
2023/01/30 09:05:23;;;;;;;24.20;4.45;;;6.70;99.90;;;;;;5071592;28;20029;-65
2023/01/30 09:07:49;;;;;;;40.28;10.25;;;6.80;99.90;;;;;;5067237;28;20091;-65
2023/01/30 09:10:15;;;;;;;52.08;19.10;;;6.80;99.90;;;;;;5064495;28;20482;-65
2023/01/30 09:12:40;;;;;;;38.80;12.95;;;6.70;99.90;;;;;;5060629;28;20028;-65
2023/01/30 09:15:07;;;;;;;22.77;6.53;;;6.70;99.90;;;;;;5062948;28;20021;-65
2023/01/30 09:17:32;;;;;;;21.80;7.68;;;6.60;99.90;;;;;;5069372;28;20516;-65
2023/01/30 09:19:59;;;;;;;33.15;13.82;;;6.50;99.90;;;;;;5070252;28;20029;-64
2023/01/30 09:22:24;;;;;;;24.08;5.60;;;6.60;99.90;;;;;;5061667;28;20033;-65
2023/01/30 09:24:50;;;;;;;23.52;5.47;;;6.60;99.90;;;;;;5061525;28;20224;-65
2023/01/30 09:27:15;;;;;;;24.63;5.47;;;6.60;99.90;;;;;;5058402;28;20462;-65
2023/01/30 09:29:41;;;;;;;21.77;4.50;;;6.60;99.90;;;;;;5061317;28;20025;-64
2023/01/30 09:32:06;;;;;;;27.80;5.18;;;6.60;99.90;;;;;;5064458;28;20450;-64
2023/01/30 09:34:33;;;;;;;22.48;4.53;;;6.60;99.90;;;;;;5066506;28;20493;-65
2023/01/30 09:37:00;;;;;;;21.73;5.03;;;6.70;99.90;;;;;;5069293;28;20077;-64
2023/01/30 09:39:27;;;;;;;18.77;3.90;;;6.60;99.90;;;;;;5070312;28;20472;-64
2023/01/30 09:42:22;;;;;;;22.77;5.00;;;6.70;99.90;;;;;;5072415;28;20063;-65
2023/01/30 09:45:13;;;;;;;42.08;10.13;;;6.70;99.90;;;;;;5056195;28;20033;-65
2023/01/30 09:47:47;;;;;;;24.42;5.07;;;6.70;99.90;;;;;;5064581;28;20048;-64
2023/01/30 09:50:40;;;;;;;22.40;5.47;;;6.70;99.90;;;;;;5070456;28;20528;-64
2023/01/30 09:55:57;;;;;;;20.38;4.47;;;6.70;99.90;;;;;;5106546;27;20113;-62
2023/01/30 09:58:26;;;;;;;24.20;4.68;;;6.70;99.90;;;;;;5099539;28;20024;-63
2023/01/30 10:00:59;;;;;;;33.15;5.75;;;6.70;99.90;;;;;;5097595;28;20016;-64
2023/01/30 10:03:34;;;;;;;;;;;6.70;99.90;;;;;;5089861;28;20023;-63
2023/01/30 10:06:05;;;;;;;28.02;4.88;;;6.70;99.90;;;;;;5097208;28;19908;-63
2023/01/30 10:09:10;;;;;;;114.55;37.65;;;6.70;99.90;;;;;;5090570;28;20358;-63
2023/01/30 10:12:12;;;;;;;27.02;7.63;;;6.80;99.90;;;;;;5087845;28;20128;-63
2023/01/30 10:17:55;;;;;;;25.33;5.20;;;6.90;99.90;;;;;;5089908;27;20413;-63
2023/01/30 10:20:37;;;;;;;25.05;4.60;;;8.10;99.90;;;;;;5073426;28;20037;-63
2023/01/30 10:23:32;;;;;;;25.83;5.75;;;8.30;99.90;;;;;;5074483;28;20074;-63
2023/01/30 10:26:07;;;;;;;19.60;4.88;;;7.90;99.90;;;;;;5071448;28;20124;-63
2023/01/30 10:28:47;;;;;;;29.98;5.18;;;7.80;99.90;;;;;;5080464;28;20055;-62
2023/01/30 10:31:15;;;;;;;27.58;4.95;;;7.50;99.90;;;;;;5076755;28;20016;-66
2023/01/30 10:33:54;;;;;;;24.15;4.75;;;7.30;99.90;;;;;;5085237;28;20382;-63
2023/01/30 10:36:28;;;;;;;34.75;5.13;;;7.20;99.90;;;;;;5071477;28;20100;-64
2023/01/30 10:38:57;;;;;;;27.52;4.75;;;7.30;99.90;;;;;;5071335;28;20024;-62
2023/01/30 10:41:28;;;;;;;21.77;4.70;;;7.20;99.90;;;;;;5072348;28;20029;-62
2023/01/30 10:44:07;;;;;;;34.65;5.55;;;7.10;99.90;;;;;;5080577;28;20469;-62
2023/01/30 10:46:59;;;;;;;28.55;4.80;;;7.10;99.90;;;;;;5083849;28;20032;-62
2023/01/30 10:49:48;;;;;;;30.95;5.03;;;7.10;99.90;;;;;;5079991;28;20035;-62
2023/01/30 10:52:42;;;;;;;29.15;4.93;;;7.10;99.90;;;;;;5073428;28;20067;-62
2023/01/30 10:55:26;;;;;;;21.10;4.82;;;7.10;99.90;;;;;;5071027;28;20028;-63
2023/01/30 10:58:01;;;;;;;28.50;5.80;;;7.00;99.90;;;;;;5075521;28;20024;-63
2023/01/30 11:00:51;;;;;;;25.73;4.18;;;7.00;99.90;;;;;;5073594;28;20020;-63
2023/01/30 11:03:26;;;;;;;32.63;5.15;;;7.00;99.90;;;;;;5072643;28;20029;-63
2023/01/30 11:05:58;;;;;;;29.42;5.05;;;7.00;99.90;;;;;;5078885;28;20028;-66
2023/01/30 11:08:29;;;;;;;27.50;5.75;;;7.00;99.90;;;;;;5080972;28;20031;-61
2023/01/30 11:10:57;;;;;;;24.40;5.35;;;7.00;99.90;;;;;;5080705;28;20733;-63
2023/01/30 11:13:31;;;;;;;24.15;4.60;;;7.00;99.90;;;;;;5073392;28;20035;-65
2023/01/30 11:16:04;;;;;;;25.77;4.90;;;7.10;99.90;;;;;;5083033;28;20161;-65
2023/01/30 11:18:29;;;;;;;37.03;5.10;;;7.10;99.90;;;;;;5081511;28;20094;-63
2023/01/30 11:21:09;;;;;;;18.70;4.28;;;7.10;99.90;;;;;;5071884;28;20029;-62
2023/01/30 11:23:40;;;;;;;33.00;4.68;;;7.20;99.90;;;;;;5073091;28;20100;-62
2023/01/30 11:26:06;;;;;;;31.10;4.85;;;7.20;99.90;;;;;;5087339;28;20028;-62
2023/01/30 11:28:38;;;;;;;24.98;5.20;;;7.20;99.90;;;;;;5067501;28;20029;-63
2023/01/30 11:31:05;;;;;;;24.53;4.13;;;7.20;99.90;;;;;;5067941;28;20386;-65
2023/01/30 11:33:34;;;;;;;28.60;4.65;;;7.20;99.90;;;;;;5069873;28;20032;-63
2023/01/30 11:36:03;;;;;;;37.47;5.57;;;7.40;99.90;;;;;;5070500;28;20493;-63
2023/01/30 11:38:32;;;;;;;28.38;4.47;;;7.50;99.90;;;;;;5065711;28;20029;-63
2023/01/30 11:41:16;;;;;;;33.58;6.05;;;7.40;99.90;;;;;;5061644;28;20104;-63
2023/01/30 11:43:42;;;;;;;31.08;4.28;;;7.30;99.90;;;;;;5061055;28;20025;-63
2023/01/30 11:46:11;;;;;;;29.92;4.90;;;7.30;99.90;;;;;;5060859;28;20043;-63
2023/01/30 11:48:53;;;;;;;27.02;4.68;;;7.40;99.90;;;;;;5059179;28;20033;-62
2023/01/30 11:51:22;;;;;;;18.85;4.78;;;7.40;99.90;;;;;;5061798;28;20028;-62
2023/01/30 11:54:00;;;;;;;28.00;8.18;;;7.40;99.90;;;;;;5071528;28;20112;-63
2023/01/30 11:56:38;;;;;;;28.60;5.40;;;7.40;99.90;;;;;;5069579;28;20112;-63
2023/01/30 11:59:26;;;;;;;22.33;3.85;;;7.40;99.90;;;;;;5072236;28;20024;-64
2023/01/30 12:02:03;;;;;;;24.92;4.10;;;7.50;99.90;;;;;;5070999;28;20070;-63
2023/01/30 12:04:29;;;;;;;23.38;4.50;;;7.70;99.90;;;;;;5071589;28;20024;-63
2023/01/30 12:07:18;;;;;;;17.33;4.28;;;7.70;99.90;;;;;;5064053;28;20036;-64
2023/01/30 12:09:44;;;;;;;22.08;3.92;;;7.70;99.90;;;;;;5066537;28;20031;-63
2023/01/30 12:12:34;;;;;;;20.55;4.30;;;7.70;99.90;;;;;;5064384;28;20111;-63
2023/01/30 12:15:25;;;;;;;25.60;3.80;;;7.80;99.90;;;;;;5058596;28;20020;-62
2023/01/30 12:18:10;;;;;;;16.75;3.67;;;7.80;99.90;;;;;;5062116;28;20029;-65
2023/01/30 12:20:48;;;;;;;25.48;4.32;;;7.80;99.90;;;;;;5072509;28;20070;-64
2023/01/30 12:23:22;;;;;;;25.67;4.32;;;7.80;99.90;;;;;;5065414;28;20036;-63
2023/01/30 12:26:06;;;;;;;21.58;4.00;;;7.90;99.90;;;;;;5074033;28;20039;-63
2023/01/30 12:28:42;;;;;;;23.77;4.40;;;7.90;99.90;;;;;;5061868;28;20112;-64
2023/01/30 12:31:16;;;;;;;25.27;4.15;;;8.00;99.90;;;;;;5070625;28;20029;-63
2023/01/30 12:33:41;;;;;;;22.75;4.40;;;8.10;99.90;;;;;;5066385;28;20043;-63
2023/01/30 12:36:19;;;;;;;21.73;4.20;;;8.40;99.90;;;;;;5065976;28;20248;-63
2023/01/30 12:39:03;;;;;;;26.63;4.22;;;8.50;99.90;;;;;;5071067;28;20024;-63
2023/01/30 12:41:48;;;;;;;;;;;8.40;99.90;;;;;;5067891;28;20029;-64
2023/01/30 12:44:54;;;;;;;20.38;3.92;;;8.30;99.90;;;;;;5060004;28;19996;-63
2023/01/30 12:47:59;;;;;;;17.25;3.65;;;8.10;99.90;;;;;;5061499;28;20145;-64
2023/01/30 12:50:53;;;;;;;21.65;4.40;;;8.00;99.90;;;;;;5062667;28;20025;-64
2023/01/30 12:53:42;;;;;;;23.38;4.30;;;7.90;99.90;;;;;;5052876;28;20796;-62
2023/01/30 12:56:41;;;;;;;17.60;3.75;;;8.00;99.90;;;;;;5061860;28;20048;-64
2023/01/30 12:59:17;;;;;;;28.58;4.32;;;7.90;99.90;;;;;;5062293;28;20043;-64
2023/01/30 13:02:15;;;;;;;19.85;3.75;;;7.90;99.90;;;;;;5062046;28;20013;-66
2023/01/30 13:05:06;;;;;;;22.33;4.57;;;7.80;99.90;;;;;;5052676;28;20016;-64
2023/01/30 13:07:45;;;;;;;22.30;4.68;;;7.70;99.90;;;;;;5049971;28;20074;-64
2023/01/30 13:10:36;;;;;;;24.70;4.93;;;7.70;99.90;;;;;;5054760;28;20044;-64
2023/01/30 13:13:29;;;;;;;26.20;7.53;;;7.70;99.90;;;;;;5053383;28;20514;-64
2023/01/30 13:16:09;;;;;;;22.95;4.10;;;7.60;99.90;;;;;;5061778;28;20448;-64
2023/01/30 13:19:00;;;;;;;20.40;4.43;;;7.50;99.90;;;;;;5069781;28;20155;-63